createdAt,value
2018-09-05T00:01:53.780Z,19.77
2018-09-05T00:04:21.254Z,21.67
2018-09-05T00:06:48.710Z,20.03
2018-09-05T00:09:16.274Z,20.40
2018-09-05T00:11:43.754Z,23.87
2018-09-05T00:14:12.018Z,21.20
2018-09-05T00:16:39.580Z,24.63
2018-09-05T00:19:07.036Z,23.30
2018-09-05T00:21:34.512Z,21.20
2018-09-05T00:24:03.505Z,25.00
2018-09-05T00:26:31.775Z,23.30
2018-09-05T00:28:59.343Z,18.57
2018-09-05T00:31:26.810Z,25.57
2018-09-05T00:33:54.281Z,19.60
2018-09-05T00:36:23.264Z,22.07
2018-09-05T00:38:50.727Z,21.53
2018-09-05T00:41:18.292Z,24.53
2018-09-05T00:43:45.770Z,22.80
2018-09-05T00:46:14.005Z,23.50
2018-09-05T00:48:41.463Z,23.43
2018-09-05T00:51:08.957Z,22.93
2018-09-05T00:53:36.522Z,23.47
2018-09-05T00:56:04.083Z,22.80
2018-09-05T00:58:31.651Z,19.90
2018-09-05T01:00:59.076Z,25.10
2018-09-05T01:03:26.575Z,21.57
2018-09-05T01:05:54.053Z,24.40
2018-09-05T01:08:21.515Z,24.47
2018-09-05T01:10:49.791Z,20.87
2018-09-05T01:13:17.272Z,23.03
2018-09-05T01:15:45.495Z,24.60
2018-09-05T01:18:12.995Z,21.73
2018-09-05T01:20:40.446Z,23.50
2018-09-05T01:23:08.012Z,24.40
2018-09-05T01:25:35.491Z,25.70
2018-09-05T01:28:04.452Z,26.00
2018-09-05T01:30:31.923Z,25.37
2018-09-05T01:32:59.401Z,22.60
2018-09-05T01:35:26.880Z,23.20
2018-09-05T01:37:54.416Z,26.30
2018-09-05T01:40:21.881Z,17.60
2018-09-05T01:42:49.359Z,25.53
2018-09-05T01:45:17.604Z,23.00
2018-09-05T01:47:45.076Z,24.97
2018-09-05T01:50:12.568Z,26.33
2018-09-05T01:52:40.019Z,25.93
2018-09-05T01:55:08.231Z,26.70
2018-09-05T01:57:35.744Z,23.37
2018-09-05T02:00:03.212Z,21.53
2018-09-05T02:02:30.778Z,24.47
2018-09-05T02:04:58.247Z,27.10
2018-09-05T02:07:25.797Z,27.07
2018-09-05T02:09:53.371Z,23.73
2018-09-05T02:12:20.824Z,27.27
2018-09-05T02:14:48.284Z,25.33
2018-09-05T02:17:15.862Z,23.53
2018-09-05T02:19:43.312Z,22.40
2018-09-05T02:22:10.884Z,22.17
2018-09-05T02:24:38.442Z,22.13
2018-09-05T02:27:05.912Z,22.47
2018-09-05T02:29:33.378Z,17.50
2018-09-05T02:32:00.845Z,27.03
2018-09-05T02:34:28.401Z,26.50
2018-09-05T02:36:55.877Z,25.57
2018-09-05T02:39:24.135Z,26.70
2018-09-05T02:41:51.699Z,24.30
2018-09-05T02:44:19.165Z,24.27
2018-09-05T02:49:10.085Z,22.30
2018-09-05T02:51:37.548Z,25.13
2018-09-05T02:54:05.124Z,22.20
2018-09-05T02:56:32.579Z,23.97
2018-09-05T02:59:00.053Z,26.03
2018-09-05T03:01:27.523Z,24.73
2018-09-05T03:03:54.997Z,22.23
2018-09-05T03:06:22.540Z,24.07
2018-09-05T03:08:49.998Z,25.03
2018-09-05T03:11:17.555Z,26.50
2018-09-05T03:13:45.027Z,23.43
2018-09-05T03:16:12.503Z,28.10
2018-09-05T03:18:40.068Z,21.83
2018-09-05T03:21:08.289Z,25.93
2018-09-05T03:23:35.783Z,21.40
2018-09-05T03:26:03.212Z,25.57
2018-09-05T03:28:30.680Z,23.70
2018-09-05T03:30:58.136Z,28.70
2018-09-05T03:33:25.650Z,24.43
2018-09-05T03:35:53.108Z,25.73
2018-09-05T03:38:20.673Z,22.17
2018-09-05T03:40:48.148Z,26.27
2018-09-05T03:43:15.695Z,23.87
2018-09-05T03:45:43.168Z,22.50
2018-09-05T03:48:10.627Z,23.83
2018-09-05T03:50:39.602Z,21.10
2018-09-05T03:53:07.076Z,23.97
2018-09-05T03:55:34.547Z,25.63
2018-09-05T03:58:02.104Z,23.47
2018-09-05T04:00:29.564Z,25.17
2018-09-05T04:02:57.138Z,23.27
2018-09-05T04:05:25.381Z,21.67
2018-09-05T04:07:52.839Z,20.00
2018-09-05T04:10:20.297Z,22.13
2018-09-05T04:12:47.802Z,23.17
2018-09-05T04:15:15.372Z,18.77
2018-09-05T04:17:42.845Z,21.33
2018-09-05T04:20:10.305Z,21.83
2018-09-05T04:22:38.577Z,22.90
2018-09-05T04:25:06.136Z,25.00
2018-09-05T04:27:33.638Z,18.13
2018-09-05T04:30:01.112Z,17.53
2018-09-05T04:32:28.633Z,23.53
2018-09-05T04:34:56.103Z,20.73
2018-09-05T04:37:24.776Z,25.17
2018-09-05T04:39:52.341Z,21.87
2018-09-05T04:42:19.787Z,33.27
2018-09-05T04:44:47.267Z,21.90
2018-09-05T04:47:14.815Z,27.70
2018-09-05T04:49:42.277Z,24.03
2018-09-05T04:52:09.738Z,31.03
2018-09-05T04:54:37.201Z,38.17
2018-09-05T04:57:04.657Z,34.03
2018-09-05T04:59:32.120Z,24.83
2018-09-05T05:01:59.599Z,39.20
2018-09-05T05:04:27.074Z,32.17
2018-09-05T05:06:55.759Z,26.53
2018-09-05T05:09:23.230Z,14.63
2018-09-05T05:11:50.690Z,14.13
2018-09-05T05:14:19.668Z,9.30
2018-09-05T05:16:47.125Z,8.17
2018-09-05T05:19:14.696Z,7.47
2018-09-05T05:21:42.259Z,7.97
2018-09-05T05:24:09.830Z,12.23
2018-09-05T05:26:37.396Z,12.43
2018-09-05T05:29:04.859Z,14.57
2018-09-05T05:31:32.428Z,16.83
2018-09-05T05:33:59.981Z,13.83
2018-09-05T05:36:27.450Z,13.57
2018-09-05T05:38:55.025Z,15.77
2018-09-05T05:41:22.498Z,15.40
2018-09-05T05:43:50.732Z,12.70
2018-09-05T05:46:18.200Z,15.07
2018-09-05T05:48:45.653Z,11.37
2018-09-05T05:51:13.104Z,10.57
2018-09-05T05:53:40.604Z,9.13
2018-09-05T05:56:08.068Z,8.77
2018-09-05T05:58:35.522Z,10.50
2018-09-05T06:01:02.998Z,7.87
2018-09-05T06:03:30.451Z,8.07
2018-09-05T06:05:58.253Z,6.57
2018-09-05T06:08:26.367Z,6.63
2018-09-05T06:10:53.846Z,5.93
2018-09-05T06:13:21.414Z,5.23
2018-09-05T06:15:48.871Z,5.77
2018-09-05T06:18:16.444Z,6.73
2018-09-05T06:20:43.891Z,6.03
2018-09-05T06:23:11.369Z,4.17
2018-09-05T06:25:38.823Z,3.13
2018-09-05T06:28:06.287Z,4.13
2018-09-05T06:30:33.884Z,6.03
2018-09-05T06:33:01.217Z,3.27
2018-09-05T06:35:28.670Z,5.57
2018-09-05T06:37:56.239Z,4.20
2018-09-05T06:40:23.802Z,3.53
2018-09-05T06:42:51.271Z,4.00
2018-09-05T06:45:18.891Z,3.77
2018-09-05T06:47:47.825Z,5.20
2018-09-05T06:50:15.276Z,5.00
2018-09-05T06:52:42.727Z,5.60
2018-09-05T06:55:10.195Z,5.70
2018-09-05T06:57:37.660Z,7.47
2018-09-05T07:00:05.115Z,7.43
2018-09-05T07:02:32.567Z,7.00
2018-09-05T07:05:00.028Z,8.27
2018-09-05T07:07:27.493Z,8.00
2018-09-05T07:09:54.992Z,9.57
2018-09-05T07:12:22.418Z,12.10
2018-09-05T07:14:49.904Z,16.20
2018-09-05T07:17:17.483Z,9.73
2018-09-05T07:19:44.946Z,10.00
2018-09-05T07:22:13.222Z,14.77
2018-09-05T07:24:40.785Z,13.70
2018-09-05T07:27:08.349Z,12.33
2018-09-05T07:29:35.818Z,11.17
2018-09-05T07:32:03.271Z,12.57
2018-09-05T07:34:30.738Z,12.47
2018-09-05T07:36:58.319Z,12.30
2018-09-05T07:39:25.767Z,11.20
2018-09-05T07:41:53.227Z,15.03
2018-09-05T07:44:20.799Z,12.47
2018-09-05T07:46:48.346Z,16.23
2018-09-05T07:49:15.821Z,14.60
2018-09-05T07:51:43.373Z,17.90
2018-09-05T07:54:10.861Z,13.73
2018-09-05T07:56:38.324Z,16.40
2018-09-05T07:59:06.554Z,19.87
2018-09-05T08:01:34.045Z,15.13
2018-09-05T08:04:01.501Z,17.67
2018-09-05T08:06:28.971Z,16.90
2018-09-05T08:08:56.436Z,15.40
2018-09-05T08:11:23.912Z,21.50
2018-09-05T08:13:51.451Z,18.10
2018-09-05T08:16:18.924Z,14.53
2018-09-05T08:18:46.376Z,14.20
2018-09-05T08:21:13.954Z,14.73
2018-09-05T08:23:41.504Z,15.93
2018-09-05T08:26:09.075Z,14.87
2018-09-05T08:28:36.646Z,16.17
2018-09-05T08:31:04.204Z,15.70
2018-09-05T08:33:31.665Z,17.27
2018-09-05T08:35:59.527Z,21.23
2018-09-05T08:38:27.567Z,19.10
2018-09-05T08:40:54.998Z,19.87
2018-09-05T08:43:23.231Z,20.33
2018-09-05T08:45:51.045Z,16.60
2018-09-05T08:48:18.250Z,17.37
2018-09-05T08:50:45.766Z,15.13
2018-09-05T08:53:13.233Z,20.37
2018-09-05T08:55:40.687Z,15.70
2018-09-05T08:58:08.928Z,19.03
2018-09-05T09:00:36.392Z,17.57
2018-09-05T09:03:03.954Z,18.40
2018-09-05T09:05:31.342Z,18.20
2018-09-05T09:07:58.863Z,22.23
2018-09-05T09:10:26.318Z,18.50
2018-09-05T09:12:53.809Z,12.07
2018-09-05T09:15:21.293Z,18.50
2018-09-05T09:17:48.757Z,19.27
2018-09-05T09:20:16.212Z,18.47
2018-09-05T09:22:43.776Z,18.57
2018-09-05T09:25:11.332Z,18.93
2018-09-05T09:27:40.326Z,14.70
2018-09-05T09:30:07.789Z,17.43
2018-09-05T09:32:35.260Z,14.13
2018-09-05T09:35:02.832Z,16.10
2018-09-05T09:37:30.381Z,15.07
2018-09-05T09:39:57.853Z,16.47
2018-09-05T09:42:25.299Z,12.77
2018-09-05T09:44:52.771Z,15.53
2018-09-05T09:47:20.329Z,11.83
2018-09-05T09:49:47.927Z,11.23
2018-09-05T09:52:16.156Z,12.43
2018-09-05T09:54:43.642Z,14.63
2018-09-05T09:57:11.201Z,15.60
2018-09-05T09:59:38.783Z,18.47
2018-09-05T10:02:23.044Z,17.77
2018-09-05T10:05:10.235Z,15.20
2018-09-05T10:07:37.728Z,15.43
2018-09-05T10:10:06.074Z,17.50
2018-09-05T10:12:49.227Z,17.07
2018-09-05T10:15:17.454Z,14.37
2018-09-05T10:17:44.920Z,15.20
2018-09-05T10:20:12.494Z,15.60
2018-09-05T10:22:40.058Z,15.40
2018-09-05T10:25:07.426Z,12.90
2018-09-05T10:27:34.988Z,10.67
2018-09-05T10:30:02.552Z,16.33
2018-09-05T10:32:30.831Z,19.77
2018-09-05T10:34:58.281Z,14.77
2018-09-05T10:37:25.741Z,15.87
2018-09-05T10:39:53.196Z,14.10
2018-09-05T10:42:20.782Z,15.88
2018-09-05T10:44:48.261Z,12.40
2018-09-05T10:47:16.509Z,16.03
2018-09-05T10:49:44.071Z,16.53
2018-09-05T10:52:11.646Z,18.70
2018-09-05T10:54:39.105Z,18.97
2018-09-05T10:57:06.672Z,15.17
2018-09-05T10:59:34.228Z,15.23
2018-09-05T11:02:01.808Z,15.43
2018-09-05T11:04:29.365Z,19.03
2018-09-05T11:06:56.861Z,17.07
2018-09-05T11:09:25.080Z,16.97
2018-09-05T11:11:52.561Z,21.13
2018-09-05T11:14:20.141Z,17.40
2018-09-05T11:16:47.703Z,24.50
2018-09-05T11:19:15.179Z,16.17
2018-09-05T11:21:43.447Z,17.87
2018-09-05T11:24:10.912Z,15.60
2018-09-05T11:26:38.380Z,16.90
2018-09-05T11:29:06.687Z,18.87
2018-09-05T11:31:34.205Z,17.83
2018-09-05T11:34:01.677Z,20.07
2018-09-05T11:36:29.139Z,13.77
2018-09-05T11:38:56.620Z,19.20
2018-09-05T11:41:24.858Z,13.97
2018-09-05T11:43:52.354Z,16.73
2018-09-05T11:46:19.814Z,17.03
2018-09-05T11:48:47.271Z,19.03
2018-09-05T11:51:16.353Z,21.17
2018-09-05T11:53:43.807Z,17.80
2018-09-05T11:56:11.271Z,21.57
2018-09-05T11:58:38.850Z,21.30
2018-09-05T12:01:06.334Z,18.93
2018-09-05T12:03:34.933Z,20.40
2018-09-05T12:06:03.168Z,23.20
2018-09-05T12:08:30.740Z,20.73
2018-09-05T12:10:58.297Z,17.80
2018-09-05T12:13:25.783Z,16.37
2018-09-05T12:15:53.322Z,13.37
2018-09-05T12:18:20.799Z,15.73
2018-09-05T12:20:48.264Z,13.90
2018-09-05T12:23:16.863Z,15.80
2018-09-05T12:25:45.470Z,17.07
2018-09-05T12:28:13.705Z,14.53
2018-09-05T12:30:41.174Z,13.93
2018-09-05T12:33:08.647Z,13.90
2018-09-05T12:35:36.200Z,13.90
2018-09-05T12:38:03.651Z,14.10
2018-09-05T12:40:31.114Z,14.27
2018-09-05T12:42:58.688Z,13.23
2018-09-05T12:45:26.139Z,12.33
2018-09-05T12:47:53.709Z,10.57
2018-09-05T12:50:21.168Z,9.80
2018-09-05T12:52:48.650Z,12.23
2018-09-05T12:55:16.918Z,12.90
2018-09-05T12:57:44.387Z,10.37
2018-09-05T13:00:11.937Z,9.03
2018-09-05T13:02:39.465Z,10.53
2018-09-05T13:05:06.962Z,9.17
2018-09-05T13:07:34.426Z,9.37
2018-09-05T13:10:01.897Z,9.73
2018-09-05T13:12:29.462Z,9.43
2018-09-05T13:14:57.020Z,9.80
2018-09-05T13:17:24.475Z,9.23
2018-09-05T13:19:53.093Z,10.43
2018-09-05T13:22:21.332Z,12.37
2018-09-05T13:24:48.885Z,11.13
2018-09-05T13:27:16.355Z,9.30
2018-09-05T13:29:43.819Z,15.73
2018-09-05T13:32:11.283Z,16.40
2018-09-05T13:34:38.748Z,18.17
2018-09-05T13:37:06.235Z,14.60
2018-09-05T13:39:33.709Z,12.53
2018-09-05T13:42:02.040Z,11.33
2018-09-05T13:44:29.500Z,10.47
2018-09-05T13:46:56.983Z,14.17
2018-09-05T13:49:24.467Z,15.17
2018-09-05T13:51:51.928Z,14.30
2018-09-05T13:54:19.444Z,13.60
2018-09-05T13:56:46.923Z,14.33
2018-09-05T13:59:14.392Z,14.17
2018-09-05T14:01:41.871Z,16.83
2018-09-05T14:04:09.378Z,12.93
2018-09-05T14:06:37.607Z,16.50
2018-09-05T14:09:05.178Z,16.23
2018-09-05T14:11:32.657Z,14.03
2018-09-05T14:14:00.944Z,14.67
2018-09-05T14:16:28.418Z,13.40
2018-09-05T14:18:56.648Z,17.50
2018-09-05T14:21:24.230Z,16.87
2018-09-05T14:23:51.694Z,15.87
2018-09-05T14:26:19.170Z,16.67
2018-09-05T14:28:47.427Z,19.77
2018-09-05T14:31:14.904Z,18.40
2018-09-05T14:33:42.363Z,15.00
2018-09-05T14:36:09.852Z,22.10
2018-09-05T14:38:38.099Z,17.27
2018-09-05T14:41:05.590Z,18.43
2018-09-05T14:43:34.255Z,18.53
2018-09-05T14:46:01.840Z,21.33
2018-09-05T14:48:30.112Z,17.17
2018-09-05T14:50:57.565Z,16.97
2018-09-05T14:53:25.064Z,15.73
2018-09-05T14:55:53.311Z,19.73
2018-09-05T14:58:20.870Z,16.37
2018-09-05T15:00:49.852Z,17.77
2018-09-05T15:03:17.314Z,13.43
2018-09-05T15:05:46.356Z,17.73
2018-09-05T15:08:15.009Z,14.07
2018-09-05T15:10:42.473Z,18.37
2018-09-05T15:13:09.931Z,14.93
2018-09-05T15:15:37.503Z,12.23
2018-09-05T15:18:04.966Z,11.97
2018-09-05T15:20:32.423Z,13.60
2018-09-05T15:22:59.888Z,14.60
2018-09-05T15:25:27.449Z,11.20
2018-09-05T15:27:54.908Z,13.80
2018-09-05T15:30:22.359Z,11.20
2018-09-05T15:32:49.818Z,8.80
2018-09-05T15:35:17.307Z,10.17
2018-09-05T15:37:44.868Z,10.40
2018-09-05T15:40:12.427Z,9.30
2018-09-05T15:42:39.893Z,9.23
2018-09-05T15:45:07.347Z,12.47
2018-09-05T15:47:35.998Z,11.07
2018-09-05T15:50:03.514Z,11.03
2018-09-05T15:52:30.925Z,13.13
2018-09-05T15:54:58.462Z,15.93
2018-09-05T15:57:26.704Z,13.07
2018-09-05T15:59:54.200Z,12.70
2018-09-05T16:02:22.432Z,12.83
2018-09-05T16:04:49.899Z,10.23
2018-09-05T16:07:17.369Z,13.13
2018-09-05T16:09:44.947Z,11.83
2018-09-05T16:12:12.413Z,12.97
2018-09-05T16:14:39.886Z,13.00
2018-09-05T16:17:08.143Z,16.40
2018-09-05T16:19:35.596Z,10.23
2018-09-05T16:22:03.052Z,14.30
2018-09-05T16:24:30.516Z,10.67
2018-09-05T16:26:58.111Z,10.00
2018-09-05T16:29:25.561Z,12.63
2018-09-05T16:31:53.041Z,10.63
2018-09-05T16:34:21.276Z,12.60
2018-09-05T16:36:48.756Z,12.17
2018-09-05T16:39:16.329Z,10.87
2018-09-05T16:41:43.898Z,10.93
2018-09-05T16:44:11.359Z,9.80
2018-09-05T16:46:38.921Z,11.23
2018-09-05T16:49:06.394Z,10.30
2018-09-05T16:51:33.858Z,9.60
2018-09-05T16:54:02.818Z,12.30
2018-09-05T16:56:30.287Z,11.97
2018-09-05T16:58:57.752Z,11.93
2018-09-05T17:01:25.322Z,12.67
2018-09-05T17:03:52.781Z,12.17
2018-09-05T17:06:20.354Z,10.37
2018-09-05T17:08:47.913Z,12.50
2018-09-05T17:11:15.459Z,11.20
2018-09-05T17:13:42.848Z,10.23
2018-09-05T17:16:10.318Z,10.20
2018-09-05T17:18:37.855Z,10.87
2018-09-05T17:21:05.318Z,11.37
2018-09-05T17:23:32.810Z,13.27
2018-09-05T17:26:00.254Z,11.00
2018-09-05T17:28:27.900Z,13.47
2018-09-05T17:30:55.280Z,12.37
2018-09-05T17:33:22.902Z,12.90
2018-09-05T17:35:50.400Z,14.90
2018-09-05T17:38:17.870Z,12.80
2018-09-05T17:40:45.344Z,13.93
2018-09-05T17:43:12.816Z,12.75
2018-09-05T17:45:41.075Z,13.40
2018-09-05T17:48:08.639Z,17.27
2018-09-05T17:50:36.102Z,15.40
2018-09-05T17:53:03.555Z,16.73
2018-09-05T17:55:31.020Z,15.50
2018-09-05T17:57:58.479Z,17.67
2018-09-05T18:00:25.947Z,18.40
2018-09-05T18:02:53.419Z,18.57
2018-09-05T18:05:20.884Z,15.17
2018-09-05T18:07:48.348Z,17.40
2018-09-05T18:10:15.816Z,15.43
2018-09-05T18:12:44.039Z,13.67
2018-09-05T18:15:11.502Z,15.63
2018-09-05T18:17:38.964Z,13.87
2018-09-05T18:20:06.428Z,12.33
2018-09-05T18:22:33.921Z,12.33
2018-09-05T18:25:01.488Z,11.73
2018-09-05T18:27:28.962Z,9.87
2018-09-05T18:29:56.428Z,11.60
2018-09-05T18:32:23.891Z,11.57
2018-09-05T18:34:51.376Z,13.13
2018-09-05T18:37:19.596Z,13.43
2018-09-05T18:39:47.089Z,10.83
2018-09-05T18:42:15.321Z,12.00
2018-09-05T18:44:43.996Z,10.80
2018-09-05T18:47:12.342Z,12.63
2018-09-05T18:49:39.897Z,11.90
2018-09-05T18:52:07.371Z,11.97
2018-09-05T18:54:34.921Z,10.67
2018-09-05T18:57:02.392Z,10.87
2018-09-05T18:59:29.951Z,10.50
2018-09-05T19:01:57.414Z,13.10
2018-09-05T19:04:24.866Z,10.03
2018-09-05T19:06:52.341Z,12.57
2018-09-05T19:09:19.907Z,12.00
2018-09-05T19:11:47.364Z,12.47
2018-09-05T19:14:14.857Z,12.90
2018-09-05T19:16:42.397Z,11.00
2018-09-05T19:19:09.905Z,11.40
2018-09-05T19:21:37.361Z,12.33
2018-09-05T19:24:04.817Z,13.90
2018-09-05T19:26:33.151Z,11.23
2018-09-05T19:29:00.628Z,9.10
2018-09-05T19:31:28.096Z,9.17
2018-09-05T19:33:55.640Z,12.13
2018-09-05T19:36:23.105Z,12.47
2018-09-05T19:38:50.582Z,10.60
2018-09-05T19:41:18.031Z,10.53
2018-09-05T19:43:45.505Z,10.77
2018-09-05T19:46:13.051Z,9.77
2018-09-05T19:48:40.618Z,9.20
2018-09-05T19:51:08.079Z,9.73
2018-09-05T19:53:35.535Z,9.13
2018-09-05T19:56:03.820Z,9.07
2018-09-05T19:58:31.287Z,10.57
2018-09-05T20:00:58.763Z,8.67
2018-09-05T20:03:26.228Z,11.90
2018-09-05T20:05:53.684Z,9.17
2018-09-05T20:08:21.245Z,12.00
2018-09-05T20:10:48.791Z,9.90
2018-09-05T20:13:16.273Z,9.00
2018-09-05T20:15:43.732Z,13.17
2018-09-05T20:18:11.201Z,10.77
2018-09-05T20:20:38.748Z,12.30
2018-09-05T20:23:06.205Z,13.80
2018-09-05T20:25:33.672Z,12.63
2018-09-05T20:28:01.135Z,17.00
2018-09-05T20:30:28.602Z,11.30
2018-09-05T20:32:56.079Z,12.40
2018-09-05T20:35:23.536Z,15.10
2018-09-05T20:37:51.092Z,10.43
2018-09-05T20:40:18.652Z,14.70
2018-09-05T20:42:46.232Z,15.00
2018-09-05T20:45:13.701Z,16.93
2018-09-05T20:47:41.250Z,16.30
2018-09-05T20:50:08.805Z,15.43
2018-09-05T20:52:36.262Z,18.07
2018-09-05T20:55:03.842Z,15.73
2018-09-05T20:57:31.312Z,14.30
2018-09-05T20:59:58.762Z,18.50
2018-09-05T21:02:26.223Z,15.67
2018-09-05T21:04:53.795Z,16.97
2018-09-05T21:07:21.264Z,14.47
2018-09-05T21:09:49.478Z,15.47
2018-09-05T21:12:16.991Z,14.57
2018-09-05T21:14:44.455Z,15.60
2018-09-05T21:17:11.916Z,15.77
2018-09-05T21:19:39.500Z,15.07
2018-09-05T21:22:06.966Z,11.77
2018-09-05T21:24:34.505Z,16.53
2018-09-05T21:27:01.963Z,14.70
2018-09-05T21:29:29.416Z,15.47
2018-09-05T21:31:56.883Z,14.97
2018-09-05T21:34:24.354Z,13.23
2018-09-05T21:36:51.921Z,14.57
2018-09-05T21:39:19.390Z,16.60
2018-09-05T21:41:46.860Z,10.80
2018-09-05T21:44:14.408Z,17.93
2018-09-05T21:46:41.970Z,13.00
2018-09-05T21:49:09.546Z,18.97
2018-09-05T21:51:37.096Z,14.40
2018-09-05T21:54:04.558Z,13.50
2018-09-05T21:56:32.020Z,18.20
2018-09-05T21:58:59.480Z,17.70
2018-09-05T22:01:27.043Z,15.90
2018-09-05T22:03:54.509Z,18.10
2018-09-05T22:06:22.083Z,17.77
2018-09-05T22:08:49.642Z,18.30
2018-09-05T22:11:17.100Z,21.40
2018-09-05T22:13:44.690Z,15.47
2018-09-05T22:16:12.233Z,17.90
2018-09-05T22:18:39.705Z,15.27
2018-09-05T22:21:07.266Z,15.93
2018-09-05T22:23:34.820Z,18.10
2018-09-05T22:26:02.392Z,21.43
2018-09-05T22:28:30.015Z,17.00
2018-09-05T22:30:57.470Z,16.97
2018-09-05T22:35:50.376Z,15.97
2018-09-05T22:38:17.860Z,17.40
2018-09-05T22:40:45.333Z,16.73
2018-09-05T22:43:34.538Z,20.17
2018-09-05T22:46:13.963Z,18.23
2018-09-05T22:48:41.416Z,15.40
2018-09-05T22:51:29.322Z,19.33
2018-09-05T22:54:14.996Z,15.70
2018-09-05T22:59:34.978Z,17.23
2018-09-05T23:02:02.440Z,16.13
2018-09-05T23:04:29.901Z,11.93
2018-09-05T23:06:57.359Z,12.20
2018-09-05T23:09:24.837Z,12.80
2018-09-05T23:11:53.801Z,13.30
2018-09-05T23:14:21.286Z,11.60
2018-09-05T23:16:56.605Z,12.20
2018-09-05T23:19:23.992Z,10.43
2018-09-05T23:21:51.547Z,10.23
2018-09-05T23:24:19.109Z,12.23
2018-09-05T23:26:46.567Z,12.50
2018-09-05T23:29:14.144Z,11.03
2018-09-05T23:31:42.369Z,11.87
2018-09-05T23:34:09.831Z,9.13
2018-09-05T23:36:37.292Z,11.00
2018-09-05T23:39:04.763Z,13.20
2018-09-05T23:41:32.229Z,8.07
2018-09-05T23:43:59.685Z,9.17
2018-09-05T23:46:27.139Z,9.07
2018-09-05T23:48:54.646Z,9.13
2018-09-05T23:51:22.117Z,9.87
2018-09-05T23:53:49.673Z,8.70
2018-09-05T23:56:17.138Z,11.33
2018-09-05T23:58:44.610Z,10.53
